sensor_id;sensor_type;location;lat;lon;timestamp;P1;durP1;ratioP1;P2;durP2;ratioP2
20399;SDS011;10359;53.596;22.520;2023-08-06T00:04:11;14.80;;;10.23;;
20399;SDS011;10359;53.596;22.520;2023-08-06T00:10:52;14.10;;;9.83;;
20399;SDS011;10359;53.596;22.520;2023-08-06T00:13:48;17.90;;;10.70;;
20399;SDS011;10359;53.596;22.520;2023-08-06T00:24:05;18.97;;;11.87;;
20399;SDS011;10359;53.596;22.520;2023-08-06T00:31:03;16.47;;;12.30;;
20399;SDS011;10359;53.596;22.520;2023-08-06T00:37:51;35.07;;;16.40;;
20399;SDS011;10359;53.596;22.520;2023-08-06T00:44:31;31.20;;;15.73;;
20399;SDS011;10359;53.596;22.520;2023-08-06T00:51:18;36.33;;;16.50;;
20399;SDS011;10359;53.596;22.520;2023-08-06T00:58:05;37.93;;;19.27;;
20399;SDS011;10359;53.596;22.520;2023-08-06T01:04:45;29.83;;;16.63;;
20399;SDS011;10359;53.596;22.520;2023-08-06T01:11:44;26.53;;;15.77;;
20399;SDS011;10359;53.596;22.520;2023-08-06T01:22:14;32.37;;;18.90;;
20399;SDS011;10359;53.596;22.520;2023-08-06T01:29:03;21.87;;;15.60;;
20399;SDS011;10359;53.596;22.520;2023-08-06T01:36:04;24.77;;;16.10;;
20399;SDS011;10359;53.596;22.520;2023-08-06T01:42:53;25.33;;;16.73;;
20399;SDS011;10359;53.596;22.520;2023-08-06T01:49:33;25.90;;;16.87;;
20399;SDS011;10359;53.596;22.520;2023-08-06T01:56:13;28.33;;;17.43;;
20399;SDS011;10359;53.596;22.520;2023-08-06T02:02:54;24.50;;;17.87;;
20399;SDS011;10359;53.596;22.520;2023-08-06T02:09:34;25.33;;;17.00;;
20399;SDS011;10359;53.596;22.520;2023-08-06T02:19:05;22.23;;;17.60;;
20399;SDS011;10359;53.596;22.520;2023-08-06T02:26:02;32.07;;;19.00;;
20399;SDS011;10359;53.596;22.520;2023-08-06T02:32:54;34.53;;;19.60;;
20399;SDS011;10359;53.596;22.520;2023-08-06T02:39:45;38.13;;;21.53;;
20399;SDS011;10359;53.596;22.520;2023-08-06T02:46:39;40.10;;;22.37;;
20399;SDS011;10359;53.596;22.520;2023-08-06T02:53:42;25.50;;;17.97;;
20399;SDS011;10359;53.596;22.520;2023-08-06T03:00:40;41.97;;;21.37;;
20399;SDS011;10359;53.596;22.520;2023-08-06T03:07:28;39.40;;;20.53;;
20399;SDS011;10359;53.596;22.520;2023-08-06T03:14:20;26.37;;;18.67;;
20399;SDS011;10359;53.596;22.520;2023-08-06T03:24:36;25.97;;;19.73;;
20399;SDS011;10359;53.596;22.520;2023-08-06T03:31:22;33.67;;;20.93;;
20399;SDS011;10359;53.596;22.520;2023-08-06T03:38:09;26.13;;;19.33;;
20399;SDS011;10359;53.596;22.520;2023-08-06T03:44:55;28.97;;;19.83;;
20399;SDS011;10359;53.596;22.520;2023-08-06T03:51:44;31.60;;;20.63;;
20399;SDS011;10359;53.596;22.520;2023-08-06T03:58:25;24.07;;;18.53;;
20399;SDS011;10359;53.596;22.520;2023-08-06T04:05:05;28.27;;;18.23;;
20399;SDS011;10359;53.596;22.520;2023-08-06T04:12:02;34.97;;;20.50;;
20399;SDS011;10359;53.596;22.520;2023-08-06T04:18:39;25.27;;;18.87;;
20399;SDS011;10359;53.596;22.520;2023-08-06T04:25:20;25.97;;;17.90;;
20399;SDS011;10359;53.596;22.520;2023-08-06T04:32:18;19.30;;;16.77;;
20399;SDS011;10359;53.596;22.520;2023-08-06T04:39:05;25.60;;;17.87;;
20399;SDS011;10359;53.596;22.520;2023-08-06T04:45:48;22.47;;;17.87;;
20399;SDS011;10359;53.596;22.520;2023-08-06T04:52:37;21.83;;;17.10;;
20399;SDS011;10359;53.596;22.520;2023-08-06T04:59:24;20.37;;;17.30;;
20399;SDS011;10359;53.596;22.520;2023-08-06T05:06:05;17.23;;;15.40;;
20399;SDS011;10359;53.596;22.520;2023-08-06T05:19:37;18.73;;;15.43;;
20399;SDS011;10359;53.596;22.520;2023-08-06T05:26:23;16.80;;;15.23;;
20399;SDS011;10359;53.596;22.520;2023-08-06T05:33:04;15.23;;;13.80;;
20399;SDS011;10359;53.596;22.520;2023-08-06T05:39:51;16.90;;;14.10;;
20399;SDS011;10359;53.596;22.520;2023-08-06T05:46:32;16.53;;;14.83;;
20399;SDS011;10359;53.596;22.520;2023-08-06T05:53:15;14.90;;;13.27;;
20399;SDS011;10359;53.596;22.520;2023-08-06T06:00:13;13.80;;;12.50;;
20399;SDS011;10359;53.596;22.520;2023-08-06T06:06:59;16.60;;;14.27;;
20399;SDS011;10359;53.596;22.520;2023-08-06T06:13:31;13.37;;;11.83;;
20399;SDS011;10359;53.596;22.520;2023-08-06T06:16:40;11.73;;;10.53;;
20399;SDS011;10359;53.596;22.520;2023-08-06T06:27:22;12.10;;;10.90;;
20399;SDS011;10359;53.596;22.520;2023-08-06T06:34:10;11.27;;;10.03;;
20399;SDS011;10359;53.596;22.520;2023-08-06T06:40:53;12.53;;;10.57;;
20399;SDS011;10359;53.596;22.520;2023-08-06T06:47:42;12.82;;;10.57;;
20399;SDS011;10359;53.596;22.520;2023-08-06T06:54:43;10.17;;;8.77;;
20399;SDS011;10359;53.596;22.520;2023-08-06T07:01:29;11.13;;;10.02;;
20399;SDS011;10359;53.596;22.520;2023-08-06T07:08:10;11.98;;;8.82;;
20399;SDS011;10359;53.596;22.520;2023-08-06T07:14:58;11.38;;;10.20;;
20399;SDS011;10359;53.596;22.520;2023-08-06T07:31:52;8.05;;;7.25;;
20399;SDS011;10359;53.596;22.520;2023-08-06T07:38:33;8.93;;;7.00;;
20399;SDS011;10359;53.596;22.520;2023-08-06T07:45:34;7.82;;;7.15;;
20399;SDS011;10359;53.596;22.520;2023-08-06T07:55:50;8.70;;;7.70;;
20399;SDS011;10359;53.596;22.520;2023-08-06T08:13:22;9.15;;;7.38;;
20399;SDS011;10359;53.596;22.520;2023-08-06T08:19:52;7.32;;;6.68;;
20399;SDS011;10359;53.596;22.520;2023-08-06T08:26:32;9.88;;;7.57;;
20399;SDS011;10359;53.596;22.520;2023-08-06T08:33:15;9.38;;;7.10;;
20399;SDS011;10359;53.596;22.520;2023-08-06T08:43:05;7.97;;;7.28;;
20399;SDS011;10359;53.596;22.520;2023-08-06T08:50:06;7.40;;;6.70;;
20399;SDS011;10359;53.596;22.520;2023-08-06T08:56:54;8.70;;;7.90;;
20399;SDS011;10359;53.596;22.520;2023-08-06T09:03:34;10.95;;;8.23;;
20399;SDS011;10359;53.596;22.520;2023-08-06T09:10:26;9.63;;;7.90;;
20399;SDS011;10359;53.596;22.520;2023-08-06T09:16:54;11.85;;;7.85;;
20399;SDS011;10359;53.596;22.520;2023-08-06T12:08:11;9.20;;;6.18;;
20399;SDS011;10359;53.596;22.520;2023-08-06T12:10:41;7.72;;;6.22;;
20399;SDS011;10359;53.596;22.520;2023-08-06T12:13:10;7.38;;;6.03;;
20399;SDS011;10359;53.596;22.520;2023-08-06T12:15:40;8.85;;;6.60;;
20399;SDS011;10359;53.596;22.520;2023-08-06T12:18:09;8.48;;;6.85;;
20399;SDS011;10359;53.596;22.520;2023-08-06T12:20:38;9.52;;;7.15;;
20399;SDS011;10359;53.596;22.520;2023-08-06T12:23:08;11.90;;;6.80;;
20399;SDS011;10359;53.596;22.520;2023-08-06T12:25:43;9.18;;;6.50;;
20399;SDS011;10359;53.596;22.520;2023-08-06T12:28:13;6.97;;;6.40;;
20399;SDS011;10359;53.596;22.520;2023-08-06T12:30:42;7.15;;;6.45;;
20399;SDS011;10359;53.596;22.520;2023-08-06T12:33:12;8.38;;;6.63;;
20399;SDS011;10359;53.596;22.520;2023-08-06T12:35:41;6.38;;;5.72;;
20399;SDS011;10359;53.596;22.520;2023-08-06T12:38:14;9.80;;;7.07;;
20399;SDS011;10359;53.596;22.520;2023-08-06T12:40:45;6.65;;;6.00;;
20399;SDS011;10359;53.596;22.520;2023-08-06T12:43:15;10.35;;;6.80;;
20399;SDS011;10359;53.596;22.520;2023-08-06T12:45:44;6.15;;;5.65;;
20399;SDS011;10359;53.596;22.520;2023-08-06T12:48:15;7.22;;;6.43;;
20399;SDS011;10359;53.596;22.520;2023-08-06T12:50:46;6.80;;;5.65;;
20399;SDS011;10359;53.596;22.520;2023-08-06T12:53:17;8.77;;;6.32;;
20399;SDS011;10359;53.596;22.520;2023-08-06T12:55:49;8.07;;;5.85;;
20399;SDS011;10359;53.596;22.520;2023-08-06T12:58:19;8.60;;;6.15;;
20399;SDS011;10359;53.596;22.520;2023-08-06T13:00:48;8.27;;;6.43;;
20399;SDS011;10359;53.596;22.520;2023-08-06T13:03:19;9.48;;;7.13;;
20399;SDS011;10359;53.596;22.520;2023-08-06T13:05:56;6.28;;;5.65;;
20399;SDS011;10359;53.596;22.520;2023-08-06T13:08:30;9.57;;;6.22;;
20399;SDS011;10359;53.596;22.520;2023-08-06T13:11:07;7.65;;;6.70;;
20399;SDS011;10359;53.596;22.520;2023-08-06T13:13:38;10.95;;;6.72;;
20399;SDS011;10359;53.596;22.520;2023-08-06T13:16:08;8.13;;;6.68;;
20399;SDS011;10359;53.596;22.520;2023-08-06T13:18:39;8.98;;;6.68;;
20399;SDS011;10359;53.596;22.520;2023-08-06T13:21:15;9.68;;;6.75;;
20399;SDS011;10359;53.596;22.520;2023-08-06T13:23:44;6.80;;;6.20;;
20399;SDS011;10359;53.596;22.520;2023-08-06T13:26:17;8.05;;;6.47;;
20399;SDS011;10359;53.596;22.520;2023-08-06T13:28:47;9.15;;;6.40;;
20399;SDS011;10359;53.596;22.520;2023-08-06T13:31:18;7.32;;;6.18;;
20399;SDS011;10359;53.596;22.520;2023-08-06T13:33:48;7.38;;;6.68;;
20399;SDS011;10359;53.596;22.520;2023-08-06T13:36:17;6.43;;;5.82;;
20399;SDS011;10359;53.596;22.520;2023-08-06T13:38:47;6.82;;;6.20;;
20399;SDS011;10359;53.596;22.520;2023-08-06T13:41:19;6.90;;;6.20;;
20399;SDS011;10359;53.596;22.520;2023-08-06T13:43:50;7.00;;;6.13;;
20399;SDS011;10359;53.596;22.520;2023-08-06T13:46:21;8.15;;;5.82;;
20399;SDS011;10359;53.596;22.520;2023-08-06T13:48:51;7.50;;;5.82;;
20399;SDS011;10359;53.596;22.520;2023-08-06T13:51:21;7.82;;;5.93;;
20399;SDS011;10359;53.596;22.520;2023-08-06T13:53:52;7.20;;;5.18;;
20399;SDS011;10359;53.596;22.520;2023-08-06T13:56:25;9.85;;;5.90;;
20399;SDS011;10359;53.596;22.520;2023-08-06T13:58:59;6.03;;;5.20;;
20399;SDS011;10359;53.596;22.520;2023-08-06T14:01:29;10.02;;;7.75;;
20399;SDS011;10359;53.596;22.520;2023-08-06T14:04:15;10.77;;;6.53;;
20399;SDS011;10359;53.596;22.520;2023-08-06T14:06:46;12.27;;;6.53;;
20399;SDS011;10359;53.596;22.520;2023-08-06T14:09:17;8.60;;;5.70;;
20399;SDS011;10359;53.596;22.520;2023-08-06T14:11:48;8.77;;;6.03;;
20399;SDS011;10359;53.596;22.520;2023-08-06T14:14:19;6.72;;;5.80;;
20399;SDS011;10359;53.596;22.520;2023-08-06T14:16:53;13.02;;;6.32;;
20399;SDS011;10359;53.596;22.520;2023-08-06T14:19:25;6.50;;;5.88;;
20399;SDS011;10359;53.596;22.520;2023-08-06T14:21:56;9.18;;;6.10;;
20399;SDS011;10359;53.596;22.520;2023-08-06T14:24:26;6.80;;;6.10;;
20399;SDS011;10359;53.596;22.520;2023-08-06T14:26:58;7.85;;;6.28;;
20399;SDS011;10359;53.596;22.520;2023-08-06T14:29:27;10.77;;;6.50;;
20399;SDS011;10359;53.596;22.520;2023-08-06T14:31:58;6.72;;;6.00;;
20399;SDS011;10359;53.596;22.520;2023-08-06T14:34:28;10.10;;;6.60;;
20399;SDS011;10359;53.596;22.520;2023-08-06T14:36:59;8.90;;;6.07;;
20399;SDS011;10359;53.596;22.520;2023-08-06T14:39:30;7.88;;;6.70;;
20399;SDS011;10359;53.596;22.520;2023-08-06T14:42:02;7.97;;;6.35;;
20399;SDS011;10359;53.596;22.520;2023-08-06T14:44:34;8.77;;;6.85;;
20399;SDS011;10359;53.596;22.520;2023-08-06T14:47:04;7.82;;;6.28;;
20399;SDS011;10359;53.596;22.520;2023-08-06T14:49:35;7.18;;;6.43;;
20399;SDS011;10359;53.596;22.520;2023-08-06T14:52:06;7.88;;;6.57;;
20399;SDS011;10359;53.596;22.520;2023-08-06T14:54:37;9.57;;;6.43;;
20399;SDS011;10359;53.596;22.520;2023-08-06T14:57:08;10.43;;;6.93;;
20399;SDS011;10359;53.596;22.520;2023-08-06T14:59:40;7.78;;;6.60;;
20399;SDS011;10359;53.596;22.520;2023-08-06T15:02:11;7.53;;;6.82;;
20399;SDS011;10359;53.596;22.520;2023-08-06T15:04:41;9.07;;;6.93;;
20399;SDS011;10359;53.596;22.520;2023-08-06T15:07:14;7.75;;;6.68;;
20399;SDS011;10359;53.596;22.520;2023-08-06T15:09:44;7.20;;;6.35;;
20399;SDS011;10359;53.596;22.520;2023-08-06T15:12:37;9.70;;;6.97;;
20399;SDS011;10359;53.596;22.520;2023-08-06T15:15:08;7.38;;;6.72;;
20399;SDS011;10359;53.596;22.520;2023-08-06T15:17:39;9.65;;;7.45;;
20399;SDS011;10359;53.596;22.520;2023-08-06T15:20:10;13.23;;;6.68;;
20399;SDS011;10359;53.596;22.520;2023-08-06T15:22:40;9.30;;;7.40;;
20399;SDS011;10359;53.596;22.520;2023-08-06T15:25:10;7.32;;;6.63;;
20399;SDS011;10359;53.596;22.520;2023-08-06T15:27:46;9.10;;;6.75;;
20399;SDS011;10359;53.596;22.520;2023-08-06T15:30:17;8.55;;;6.90;;
20399;SDS011;10359;53.596;22.520;2023-08-06T15:32:48;10.10;;;7.35;;
20399;SDS011;10359;53.596;22.520;2023-08-06T15:35:18;7.85;;;7.07;;
20399;SDS011;10359;53.596;22.520;2023-08-06T15:37:49;9.88;;;7.03;;
20399;SDS011;10359;53.596;22.520;2023-08-06T15:40:19;7.22;;;5.32;;
20399;SDS011;10359;53.596;22.520;2023-08-06T15:42:51;7.30;;;6.68;;
20399;SDS011;10359;53.596;22.520;2023-08-06T15:45:21;10.45;;;7.43;;
20399;SDS011;10359;53.596;22.520;2023-08-06T15:47:51;8.05;;;7.13;;
20399;SDS011;10359;53.596;22.520;2023-08-06T15:50:21;7.63;;;7.00;;
20399;SDS011;10359;53.596;22.520;2023-08-06T15:52:51;7.10;;;6.32;;
20399;SDS011;10359;53.596;22.520;2023-08-06T15:55:22;9.88;;;7.30;;
20399;SDS011;10359;53.596;22.520;2023-08-06T15:57:54;7.35;;;6.65;;
20399;SDS011;10359;53.596;22.520;2023-08-06T16:00:24;9.00;;;7.55;;
20399;SDS011;10359;53.596;22.520;2023-08-06T16:02:54;7.90;;;7.10;;
20399;SDS011;10359;53.596;22.520;2023-08-06T16:05:24;13.95;;;7.65;;
20399;SDS011;10359;53.596;22.520;2023-08-06T16:07:54;11.18;;;7.78;;
20399;SDS011;10359;53.596;22.520;2023-08-06T16:10:24;8.60;;;7.70;;
20399;SDS011;10359;53.596;22.520;2023-08-06T16:12:55;10.32;;;8.10;;
20399;SDS011;10359;53.596;22.520;2023-08-06T16:15:24;9.93;;;8.80;;
20399;SDS011;10359;53.596;22.520;2023-08-06T16:17:55;9.85;;;9.02;;
20399;SDS011;10359;53.596;22.520;2023-08-06T16:20:24;12.30;;;10.13;;
20399;SDS011;10359;53.596;22.520;2023-08-06T16:22:54;10.57;;;9.57;;
20399;SDS011;10359;53.596;22.520;2023-08-06T16:25:23;15.20;;;8.80;;
20399;SDS011;10359;53.596;22.520;2023-08-06T16:27:55;12.05;;;9.90;;
20399;SDS011;10359;53.596;22.520;2023-08-06T16:30:25;18.60;;;11.57;;
20399;SDS011;10359;53.596;22.520;2023-08-06T16:32:58;13.95;;;6.57;;
20399;SDS011;10359;53.596;22.520;2023-08-06T16:35:29;17.98;;;8.75;;
20399;SDS011;10359;53.596;22.520;2023-08-06T16:37:59;21.02;;;9.18;;
20399;SDS011;10359;53.596;22.520;2023-08-06T16:40:30;19.13;;;10.95;;
20399;SDS011;10359;53.596;22.520;2023-08-06T16:43:02;13.75;;;10.40;;
20399;SDS011;10359;53.596;22.520;2023-08-06T17:00:36;23.60;;;18.10;;
20399;SDS011;10359;53.596;22.520;2023-08-06T17:03:05;31.60;;;21.40;;
20399;SDS011;10359;53.596;22.520;2023-08-06T17:05:35;29.87;;;20.03;;
20399;SDS011;10359;53.596;22.520;2023-08-06T17:08:05;26.47;;;19.57;;
20399;SDS011;10359;53.596;22.520;2023-08-06T17:10:35;24.93;;;18.60;;
20399;SDS011;10359;53.596;22.520;2023-08-06T17:13:06;20.13;;;17.77;;
20399;SDS011;10359;53.596;22.520;2023-08-06T17:15:48;28.30;;;20.47;;
20399;SDS011;10359;53.596;22.520;2023-08-06T17:18:17;25.60;;;20.43;;
20399;SDS011;10359;53.596;22.520;2023-08-06T17:20:48;30.50;;;21.87;;
20399;SDS011;10359;53.596;22.520;2023-08-06T17:23:19;35.87;;;23.10;;
20399;SDS011;10359;53.596;22.520;2023-08-06T17:25:49;24.50;;;20.63;;
20399;SDS011;10359;53.596;22.520;2023-08-06T17:28:19;25.80;;;20.00;;
20399;SDS011;10359;53.596;22.520;2023-08-06T17:30:51;29.57;;;22.37;;
20399;SDS011;10359;53.596;22.520;2023-08-06T17:33:20;22.43;;;20.07;;
20399;SDS011;10359;53.596;22.520;2023-08-06T17:35:50;28.93;;;22.10;;
20399;SDS011;10359;53.596;22.520;2023-08-06T17:38:20;34.27;;;22.37;;
20399;SDS011;10359;53.596;22.520;2023-08-06T17:40:52;29.43;;;22.33;;
20399;SDS011;10359;53.596;22.520;2023-08-06T17:43:24;43.33;;;26.53;;
20399;SDS011;10359;53.596;22.520;2023-08-06T17:45:56;33.07;;;24.00;;
20399;SDS011;10359;53.596;22.520;2023-08-06T17:48:28;39.43;;;25.23;;
20399;SDS011;10359;53.596;22.520;2023-08-06T17:50:58;52.90;;;29.43;;
20399;SDS011;10359;53.596;22.520;2023-08-06T17:53:28;31.37;;;23.30;;
20399;SDS011;10359;53.596;22.520;2023-08-06T17:55:59;65.43;;;32.83;;
20399;SDS011;10359;53.596;22.520;2023-08-06T17:58:29;54.40;;;30.33;;
20399;SDS011;10359;53.596;22.520;2023-08-06T18:01:00;35.07;;;24.63;;
20399;SDS011;10359;53.596;22.520;2023-08-06T18:03:30;38.70;;;26.57;;
20399;SDS011;10359;53.596;22.520;2023-08-06T18:06:00;28.93;;;23.37;;
20399;SDS011;10359;53.596;22.520;2023-08-06T18:08:30;36.00;;;26.07;;
20399;SDS011;10359;53.596;22.520;2023-08-06T18:11:00;42.05;;;27.38;;
20399;SDS011;10359;53.596;22.520;2023-08-06T18:13:31;36.63;;;26.77;;
20399;SDS011;10359;53.596;22.520;2023-08-06T18:16:02;44.87;;;27.23;;
20399;SDS011;10359;53.596;22.520;2023-08-06T18:18:33;37.43;;;25.37;;
20399;SDS011;10359;53.596;22.520;2023-08-06T18:21:03;50.30;;;29.40;;
20399;SDS011;10359;53.596;22.520;2023-08-06T18:23:32;34.40;;;22.70;;
20399;SDS011;10359;53.596;22.520;2023-08-06T18:26:02;36.50;;;24.83;;
20399;SDS011;10359;53.596;22.520;2023-08-06T18:28:32;39.63;;;27.47;;
20399;SDS011;10359;53.596;22.520;2023-08-06T18:31:03;33.00;;;24.47;;
20399;SDS011;10359;53.596;22.520;2023-08-06T18:33:33;36.17;;;23.27;;
20399;SDS011;10359;53.596;22.520;2023-08-06T18:36:03;27.87;;;22.13;;
20399;SDS011;10359;53.596;22.520;2023-08-06T18:38:34;28.67;;;23.30;;
20399;SDS011;10359;53.596;22.520;2023-08-06T18:41:04;34.33;;;23.60;;
20399;SDS011;10359;53.596;22.520;2023-08-06T18:43:34;27.00;;;20.90;;
20399;SDS011;10359;53.596;22.520;2023-08-06T18:46:05;40.70;;;24.67;;
20399;SDS011;10359;53.596;22.520;2023-08-06T18:48:35;27.77;;;22.23;;
20399;SDS011;10359;53.596;22.520;2023-08-06T18:51:05;25.93;;;21.47;;
20399;SDS011;10359;53.596;22.520;2023-08-06T18:53:34;27.77;;;22.67;;
20399;SDS011;10359;53.596;22.520;2023-08-06T18:56:06;48.87;;;28.77;;
20399;SDS011;10359;53.596;22.520;2023-08-06T18:58:36;35.60;;;24.83;;
20399;SDS011;10359;53.596;22.520;2023-08-06T19:01:08;30.00;;;23.57;;
20399;SDS011;10359;53.596;22.520;2023-08-06T19:03:39;62.90;;;33.37;;
20399;SDS011;10359;53.596;22.520;2023-08-06T19:06:15;57.47;;;31.73;;
20399;SDS011;10359;53.596;22.520;2023-08-06T19:08:45;41.47;;;27.97;;
20399;SDS011;10359;53.596;22.520;2023-08-06T19:11:16;37.30;;;26.57;;
20399;SDS011;10359;53.596;22.520;2023-08-06T19:13:47;37.37;;;25.70;;
20399;SDS011;10359;53.596;22.520;2023-08-06T19:16:19;35.87;;;25.50;;
20399;SDS011;10359;53.596;22.520;2023-08-06T19:18:52;48.67;;;30.27;;
20399;SDS011;10359;53.596;22.520;2023-08-06T19:21:22;27.30;;;23.17;;
20399;SDS011;10359;53.596;22.520;2023-08-06T19:23:52;34.17;;;25.00;;
20399;SDS011;10359;53.596;22.520;2023-08-06T19:26:24;31.60;;;24.57;;
20399;SDS011;10359;53.596;22.520;2023-08-06T19:28:55;25.50;;;22.20;;
20399;SDS011;10359;53.596;22.520;2023-08-06T19:31:30;34.63;;;25.57;;
20399;SDS011;10359;53.596;22.520;2023-08-06T19:34:01;37.67;;;26.73;;
20399;SDS011;10359;53.596;22.520;2023-08-06T19:36:32;33.23;;;23.90;;
20399;SDS011;10359;53.596;22.520;2023-08-06T19:39:02;36.87;;;26.27;;
20399;SDS011;10359;53.596;22.520;2023-08-06T19:41:33;29.47;;;22.47;;
20399;SDS011;10359;53.596;22.520;2023-08-06T19:44:03;52.80;;;31.23;;
20399;SDS011;10359;53.596;22.520;2023-08-06T19:46:35;40.47;;;26.57;;
20399;SDS011;10359;53.596;22.520;2023-08-06T19:49:05;29.97;;;24.23;;
20399;SDS011;10359;53.596;22.520;2023-08-06T19:51:36;26.60;;;22.47;;
20399;SDS011;10359;53.596;22.520;2023-08-06T19:54:07;38.17;;;27.00;;
20399;SDS011;10359;53.596;22.520;2023-08-06T19:56:38;30.27;;;23.80;;
20399;SDS011;10359;53.596;22.520;2023-08-06T19:59:08;34.17;;;24.63;;
20399;SDS011;10359;53.596;22.520;2023-08-06T20:01:39;32.57;;;25.40;;
20399;SDS011;10359;53.596;22.520;2023-08-06T20:04:10;37.17;;;26.10;;
20399;SDS011;10359;53.596;22.520;2023-08-06T20:06:40;34.67;;;24.97;;
20399;SDS011;10359;53.596;22.520;2023-08-06T20:09:10;46.93;;;29.07;;
20399;SDS011;10359;53.596;22.520;2023-08-06T20:11:40;30.83;;;22.63;;
20399;SDS011;10359;53.596;22.520;2023-08-06T20:14:11;26.27;;;21.37;;
20399;SDS011;10359;53.596;22.520;2023-08-06T20:16:43;36.43;;;23.53;;
20399;SDS011;10359;53.596;22.520;2023-08-06T20:19:14;41.27;;;26.97;;
20399;SDS011;10359;53.596;22.520;2023-08-06T20:21:45;24.67;;;22.00;;
20399;SDS011;10359;53.596;22.520;2023-08-06T20:24:16;55.33;;;30.70;;
20399;SDS011;10359;53.596;22.520;2023-08-06T20:26:48;26.47;;;21.80;;
20399;SDS011;10359;53.596;22.520;2023-08-06T20:29:19;28.97;;;22.23;;
20399;SDS011;10359;53.596;22.520;2023-08-06T20:31:51;37.60;;;24.47;;
20399;SDS011;10359;53.596;22.520;2023-08-06T20:34:20;26.40;;;21.80;;
20399;SDS011;10359;53.596;22.520;2023-08-06T20:36:52;28.60;;;21.83;;
20399;SDS011;10359;53.596;22.520;2023-08-06T20:39:23;46.17;;;27.80;;
20399;SDS011;10359;53.596;22.520;2023-08-06T20:41:54;60.80;;;30.83;;
20399;SDS011;10359;53.596;22.520;2023-08-06T20:44:24;28.10;;;21.93;;
20399;SDS011;10359;53.596;22.520;2023-08-06T20:46:57;30.03;;;23.77;;
20399;SDS011;10359;53.596;22.520;2023-08-06T20:49:27;41.60;;;28.27;;
20399;SDS011;10359;53.596;22.520;2023-08-06T20:51:57;24.97;;;21.07;;
20399;SDS011;10359;53.596;22.520;2023-08-06T20:54:29;29.60;;;23.47;;
20399;SDS011;10359;53.596;22.520;2023-08-06T20:56:59;44.53;;;28.03;;
20399;SDS011;10359;53.596;22.520;2023-08-06T20:59:28;34.93;;;25.37;;
20399;SDS011;10359;53.596;22.520;2023-08-06T21:01:59;36.87;;;25.40;;
20399;SDS011;10359;53.596;22.520;2023-08-06T21:04:28;20.93;;;18.73;;
20399;SDS011;10359;53.596;22.520;2023-08-06T21:06:57;29.17;;;22.03;;
20399;SDS011;10359;53.596;22.520;2023-08-06T21:09:26;26.67;;;21.60;;
20399;SDS011;10359;53.596;22.520;2023-08-06T21:11:56;23.70;;;20.43;;
20399;SDS011;10359;53.596;22.520;2023-08-06T21:14:25;27.70;;;22.33;;
20399;SDS011;10359;53.596;22.520;2023-08-06T21:16:55;19.20;;;17.27;;
20399;SDS011;10359;53.596;22.520;2023-08-06T21:19:25;23.20;;;18.33;;
20399;SDS011;10359;53.596;22.520;2023-08-06T21:21:55;24.43;;;20.30;;
20399;SDS011;10359;53.596;22.520;2023-08-06T21:24:24;29.30;;;21.87;;
20399;SDS011;10359;53.596;22.520;2023-08-06T21:26:53;30.73;;;21.27;;
20399;SDS011;10359;53.596;22.520;2023-08-06T21:29:22;21.50;;;17.63;;
20399;SDS011;10359;53.596;22.520;2023-08-06T21:31:51;22.07;;;17.00;;
20399;SDS011;10359;53.596;22.520;2023-08-06T21:34:21;29.03;;;19.83;;
20399;SDS011;10359;53.596;22.520;2023-08-06T21:36:52;22.07;;;17.27;;
20399;SDS011;10359;53.596;22.520;2023-08-06T21:39:21;26.93;;;19.13;;
20399;SDS011;10359;53.596;22.520;2023-08-06T21:41:50;28.53;;;19.63;;
20399;SDS011;10359;53.596;22.520;2023-08-06T21:44:20;20.20;;;16.90;;
20399;SDS011;10359;53.596;22.520;2023-08-06T21:46:49;40.50;;;23.87;;
20399;SDS011;10359;53.596;22.520;2023-08-06T21:49:18;54.77;;;29.77;;
20399;SDS011;10359;53.596;22.520;2023-08-06T21:51:48;45.73;;;23.13;;
20399;SDS011;10359;53.596;22.520;2023-08-06T21:54:18;22.57;;;18.40;;
20399;SDS011;10359;53.596;22.520;2023-08-06T21:56:48;18.60;;;15.70;;
20399;SDS011;10359;53.596;22.520;2023-08-06T21:59:17;24.00;;;18.73;;
20399;SDS011;10359;53.596;22.520;2023-08-06T22:01:46;26.43;;;19.20;;
20399;SDS011;10359;53.596;22.520;2023-08-06T22:04:16;38.27;;;22.33;;
20399;SDS011;10359;53.596;22.520;2023-08-06T22:06:45;23.20;;;17.17;;
20399;SDS011;10359;53.596;22.520;2023-08-06T22:09:14;24.77;;;17.27;;
20399;SDS011;10359;53.596;22.520;2023-08-06T22:11:45;26.70;;;17.27;;
20399;SDS011;10359;53.596;22.520;2023-08-06T22:14:14;16.63;;;14.80;;
20399;SDS011;10359;53.596;22.520;2023-08-06T22:16:44;25.37;;;17.67;;
20399;SDS011;10359;53.596;22.520;2023-08-06T22:19:13;27.97;;;19.27;;
20399;SDS011;10359;53.596;22.520;2023-08-06T22:21:43;23.30;;;16.57;;
20399;SDS011;10359;53.596;22.520;2023-08-06T22:24:12;23.67;;;16.40;;
20399;SDS011;10359;53.596;22.520;2023-08-06T22:26:42;20.30;;;15.20;;
20399;SDS011;10359;53.596;22.520;2023-08-06T22:29:12;26.30;;;16.67;;
20399;SDS011;10359;53.596;22.520;2023-08-06T22:31:42;22.93;;;16.70;;
20399;SDS011;10359;53.596;22.520;2023-08-06T22:34:11;31.53;;;19.60;;
20399;SDS011;10359;53.596;22.520;2023-08-06T22:36:40;16.13;;;14.00;;
20399;SDS011;10359;53.596;22.520;2023-08-06T22:39:09;14.90;;;13.13;;
20399;SDS011;10359;53.596;22.520;2023-08-06T22:41:38;14.83;;;13.07;;
20399;SDS011;10359;53.596;22.520;2023-08-06T22:44:07;21.60;;;15.57;;
20399;SDS011;10359;53.596;22.520;2023-08-06T22:46:39;17.27;;;14.43;;
20399;SDS011;10359;53.596;22.520;2023-08-06T22:49:08;16.43;;;14.67;;
20399;SDS011;10359;53.596;22.520;2023-08-06T22:51:37;22.43;;;16.70;;
20399;SDS011;10359;53.596;22.520;2023-08-06T22:54:07;32.27;;;19.07;;
20399;SDS011;10359;53.596;22.520;2023-08-06T22:56:36;18.87;;;14.67;;
20399;SDS011;10359;53.596;22.520;2023-08-06T22:59:05;20.13;;;15.63;;
20399;SDS011;10359;53.596;22.520;2023-08-06T23:01:35;16.53;;;14.23;;
20399;SDS011;10359;53.596;22.520;2023-08-06T23:04:06;16.70;;;14.17;;
20399;SDS011;10359;53.596;22.520;2023-08-06T23:06:35;19.73;;;13.97;;
20399;SDS011;10359;53.596;22.520;2023-08-06T23:09:05;17.17;;;13.90;;
20399;SDS011;10359;53.596;22.520;2023-08-06T23:11:34;15.13;;;12.70;;
20399;SDS011;10359;53.596;22.520;2023-08-06T23:14:03;17.93;;;14.20;;
20399;SDS011;10359;53.596;22.520;2023-08-06T23:16:36;23.30;;;16.27;;
20399;SDS011;10359;53.596;22.520;2023-08-06T23:19:06;15.70;;;13.17;;
20399;SDS011;10359;53.596;22.520;2023-08-06T23:21:36;15.27;;;12.27;;
20399;SDS011;10359;53.596;22.520;2023-08-06T23:24:06;15.33;;;13.47;;
20399;SDS011;10359;53.596;22.520;2023-08-06T23:26:35;18.17;;;14.73;;
20399;SDS011;10359;53.596;22.520;2023-08-06T23:29:04;24.30;;;15.57;;
20399;SDS011;10359;53.596;22.520;2023-08-06T23:31:33;28.80;;;18.03;;
20399;SDS011;10359;53.596;22.520;2023-08-06T23:34:02;19.97;;;14.37;;
20399;SDS011;10359;53.596;22.520;2023-08-06T23:36:34;23.53;;;15.70;;
20399;SDS011;10359;53.596;22.520;2023-08-06T23:39:04;24.50;;;17.07;;
20399;SDS011;10359;53.596;22.520;2023-08-06T23:41:33;24.13;;;15.43;;
20399;SDS011;10359;53.596;22.520;2023-08-06T23:44:03;17.37;;;14.60;;
20399;SDS011;10359;53.596;22.520;2023-08-06T23:46:32;22.73;;;15.93;;